sensor_id;sensor_type;location;lat;lon;timestamp;P1;durP1;ratioP1;P2;durP2;ratioP2
974;SDS011;6115;49.296;10.602;2022-11-15T00:01:57;7.50;;;6.60;;
974;SDS011;6115;49.296;10.602;2022-11-15T00:06:58;7.93;;;6.60;;
974;SDS011;6115;49.296;10.602;2022-11-15T00:11:58;11.43;;;6.80;;
974;SDS011;6115;49.296;10.602;2022-11-15T00:16:59;9.40;;;7.13;;
974;SDS011;6115;49.296;10.602;2022-11-15T00:22:00;7.70;;;6.63;;
974;SDS011;6115;49.296;10.602;2022-11-15T00:27:00;7.40;;;6.03;;
974;SDS011;6115;49.296;10.602;2022-11-15T00:32:01;7.90;;;7.10;;
974;SDS011;6115;49.296;10.602;2022-11-15T00:37:01;8.33;;;7.43;;
974;SDS011;6115;49.296;10.602;2022-11-15T00:42:02;6.33;;;5.70;;
974;SDS011;6115;49.296;10.602;2022-11-15T00:47:02;8.20;;;5.97;;
974;SDS011;6115;49.296;10.602;2022-11-15T00:52:03;5.97;;;5.37;;
974;SDS011;6115;49.296;10.602;2022-11-15T00:57:03;7.13;;;5.73;;
974;SDS011;6115;49.296;10.602;2022-11-15T01:02:04;8.20;;;5.73;;
974;SDS011;6115;49.296;10.602;2022-11-15T01:07:05;6.53;;;5.33;;
974;SDS011;6115;49.296;10.602;2022-11-15T01:12:05;7.17;;;5.80;;
974;SDS011;6115;49.296;10.602;2022-11-15T01:17:06;9.20;;;6.80;;
974;SDS011;6115;49.296;10.602;2022-11-15T01:22:07;6.63;;;5.50;;
974;SDS011;6115;49.296;10.602;2022-11-15T01:27:07;6.80;;;5.80;;
974;SDS011;6115;49.296;10.602;2022-11-15T01:32:08;9.03;;;6.10;;
974;SDS011;6115;49.296;10.602;2022-11-15T01:37:08;6.63;;;5.67;;
974;SDS011;6115;49.296;10.602;2022-11-15T01:42:12;7.87;;;6.33;;
974;SDS011;6115;49.296;10.602;2022-11-15T01:47:15;8.03;;;6.07;;
974;SDS011;6115;49.296;10.602;2022-11-15T01:52:20;7.33;;;6.00;;
974;SDS011;6115;49.296;10.602;2022-11-15T01:57:23;9.17;;;6.80;;
974;SDS011;6115;49.296;10.602;2022-11-15T02:02:24;10.50;;;7.33;;
974;SDS011;6115;49.296;10.602;2022-11-15T02:07:25;12.13;;;6.83;;
974;SDS011;6115;49.296;10.602;2022-11-15T02:12:26;7.63;;;6.20;;
974;SDS011;6115;49.296;10.602;2022-11-15T02:23:04;8.97;;;6.50;;
974;SDS011;6115;49.296;10.602;2022-11-15T02:44:25;8.40;;;7.20;;
974;SDS011;6115;49.296;10.602;2022-11-15T02:49:33;9.90;;;7.90;;
974;SDS011;6115;49.296;10.602;2022-11-15T02:54:35;8.50;;;6.70;;
974;SDS011;6115;49.296;10.602;2022-11-15T03:16:03;6.37;;;5.67;;
974;SDS011;6115;49.296;10.602;2022-11-15T03:21:11;9.27;;;6.70;;
974;SDS011;6115;49.296;10.602;2022-11-15T03:26:15;8.10;;;6.23;;
974;SDS011;6115;49.296;10.602;2022-11-15T03:31:19;9.30;;;7.30;;
974;SDS011;6115;49.296;10.602;2022-11-15T03:36:41;9.07;;;6.50;;
974;SDS011;6115;49.296;10.602;2022-11-15T03:46:52;7.97;;;6.20;;
974;SDS011;6115;49.296;10.602;2022-11-15T03:52:02;11.23;;;7.60;;
974;SDS011;6115;49.296;10.602;2022-11-15T03:57:04;9.80;;;7.23;;
974;SDS011;6115;49.296;10.602;2022-11-15T04:02:05;8.87;;;6.87;;
974;SDS011;6115;49.296;10.602;2022-11-15T04:07:05;11.03;;;7.50;;
974;SDS011;6115;49.296;10.602;2022-11-15T04:12:06;12.90;;;7.17;;
974;SDS011;6115;49.296;10.602;2022-11-15T04:17:06;12.50;;;8.63;;
974;SDS011;6115;49.296;10.602;2022-11-15T04:22:07;11.60;;;8.03;;
974;SDS011;6115;49.296;10.602;2022-11-15T04:27:27;10.67;;;7.87;;
974;SDS011;6115;49.296;10.602;2022-11-15T04:32:27;12.63;;;7.03;;
974;SDS011;6115;49.296;10.602;2022-11-15T04:37:28;11.20;;;9.20;;
974;SDS011;6115;49.296;10.602;2022-11-15T04:42:28;8.80;;;6.53;;
974;SDS011;6115;49.296;10.602;2022-11-15T04:47:29;8.90;;;7.00;;
974;SDS011;6115;49.296;10.602;2022-11-15T04:52:29;7.60;;;6.50;;
974;SDS011;6115;49.296;10.602;2022-11-15T04:57:30;8.53;;;6.97;;
974;SDS011;6115;49.296;10.602;2022-11-15T05:02:30;8.67;;;7.30;;
974;SDS011;6115;49.296;10.602;2022-11-15T05:07:51;9.23;;;8.03;;
974;SDS011;6115;49.296;10.602;2022-11-15T05:12:51;8.83;;;6.37;;
974;SDS011;6115;49.296;10.602;2022-11-15T05:17:56;7.17;;;6.00;;
974;SDS011;6115;49.296;10.602;2022-11-15T05:22:58;9.00;;;7.13;;
974;SDS011;6115;49.296;10.602;2022-11-15T05:27:58;7.83;;;6.30;;
974;SDS011;6115;49.296;10.602;2022-11-15T05:32:59;7.43;;;6.00;;
974;SDS011;6115;49.296;10.602;2022-11-15T05:38:00;9.20;;;7.60;;
974;SDS011;6115;49.296;10.602;2022-11-15T05:43:01;10.30;;;7.13;;
974;SDS011;6115;49.296;10.602;2022-11-15T05:48:05;8.90;;;7.50;;
974;SDS011;6115;49.296;10.602;2022-11-15T05:53:08;8.80;;;6.73;;
974;SDS011;6115;49.296;10.602;2022-11-15T05:58:10;10.00;;;7.60;;
974;SDS011;6115;49.296;10.602;2022-11-15T06:03:11;13.93;;;7.77;;
974;SDS011;6115;49.296;10.602;2022-11-15T06:08:14;12.43;;;8.73;;
974;SDS011;6115;49.296;10.602;2022-11-15T06:13:14;9.07;;;7.23;;
974;SDS011;6115;49.296;10.602;2022-11-15T06:18:15;10.20;;;7.30;;
974;SDS011;6115;49.296;10.602;2022-11-15T06:23:15;9.13;;;7.00;;
974;SDS011;6115;49.296;10.602;2022-11-15T06:28:16;11.70;;;7.63;;
974;SDS011;6115;49.296;10.602;2022-11-15T06:33:20;8.30;;;6.27;;
974;SDS011;6115;49.296;10.602;2022-11-15T06:38:20;10.83;;;7.03;;
974;SDS011;6115;49.296;10.602;2022-11-15T06:43:21;8.90;;;7.20;;
974;SDS011;6115;49.296;10.602;2022-11-15T06:48:21;9.73;;;7.50;;
974;SDS011;6115;49.296;10.602;2022-11-15T06:53:22;11.40;;;7.40;;
974;SDS011;6115;49.296;10.602;2022-11-15T06:58:23;13.20;;;8.10;;
974;SDS011;6115;49.296;10.602;2022-11-15T07:03:24;12.13;;;7.93;;
974;SDS011;6115;49.296;10.602;2022-11-15T07:08:26;13.07;;;8.07;;
974;SDS011;6115;49.296;10.602;2022-11-15T07:13:29;13.17;;;9.93;;
974;SDS011;6115;49.296;10.602;2022-11-15T07:18:33;12.53;;;10.67;;
974;SDS011;6115;49.296;10.602;2022-11-15T07:23:36;14.80;;;10.60;;
974;SDS011;6115;49.296;10.602;2022-11-15T07:28:38;13.30;;;10.10;;
974;SDS011;6115;49.296;10.602;2022-11-15T07:33:38;14.97;;;10.70;;
974;SDS011;6115;49.296;10.602;2022-11-15T07:38:39;12.50;;;9.83;;
974;SDS011;6115;49.296;10.602;2022-11-15T07:43:39;13.47;;;9.60;;
974;SDS011;6115;49.296;10.602;2022-11-15T07:48:40;16.60;;;10.87;;
974;SDS011;6115;49.296;10.602;2022-11-15T07:53:41;11.70;;;9.90;;
974;SDS011;6115;49.296;10.602;2022-11-15T07:58:42;14.10;;;10.37;;
974;SDS011;6115;49.296;10.602;2022-11-15T08:03:45;16.03;;;11.20;;
974;SDS011;6115;49.296;10.602;2022-11-15T08:08:46;15.13;;;12.60;;
974;SDS011;6115;49.296;10.602;2022-11-15T08:13:47;12.63;;;10.77;;
974;SDS011;6115;49.296;10.602;2022-11-15T08:18:48;12.30;;;9.77;;
974;SDS011;6115;49.296;10.602;2022-11-15T08:23:48;17.60;;;11.00;;
974;SDS011;6115;49.296;10.602;2022-11-15T08:28:49;18.00;;;9.97;;
974;SDS011;6115;49.296;10.602;2022-11-15T08:33:49;12.20;;;10.00;;
974;SDS011;6115;49.296;10.602;2022-11-15T08:38:50;11.70;;;9.67;;
974;SDS011;6115;49.296;10.602;2022-11-15T08:43:51;13.40;;;9.17;;
974;SDS011;6115;49.296;10.602;2022-11-15T08:48:51;16.30;;;9.60;;
974;SDS011;6115;49.296;10.602;2022-11-15T08:53:52;10.40;;;8.83;;
974;SDS011;6115;49.296;10.602;2022-11-15T08:58:52;10.73;;;9.53;;
974;SDS011;6115;49.296;10.602;2022-11-15T09:03:53;9.93;;;8.30;;
974;SDS011;6115;49.296;10.602;2022-11-15T09:08:54;8.80;;;7.77;;
974;SDS011;6115;49.296;10.602;2022-11-15T09:13:54;12.27;;;6.53;;
974;SDS011;6115;49.296;10.602;2022-11-15T09:18:55;7.30;;;6.60;;
974;SDS011;6115;49.296;10.602;2022-11-15T09:23:55;7.20;;;6.57;;
974;SDS011;6115;49.296;10.602;2022-11-15T09:28:56;8.50;;;6.50;;
974;SDS011;6115;49.296;10.602;2022-11-15T09:33:57;6.07;;;5.57;;
974;SDS011;6115;49.296;10.602;2022-11-15T09:38:58;5.27;;;4.73;;
974;SDS011;6115;49.296;10.602;2022-11-15T09:49:31;5.10;;;4.60;;
974;SDS011;6115;49.296;10.602;2022-11-15T09:54:36;6.47;;;3.90;;
974;SDS011;6115;49.296;10.602;2022-11-15T09:59:45;4.83;;;3.93;;
974;SDS011;6115;49.296;10.602;2022-11-15T10:05:18;6.40;;;5.80;;
974;SDS011;6115;49.296;10.602;2022-11-15T10:15:36;5.43;;;4.07;;
974;SDS011;6115;49.296;10.602;2022-11-15T10:20:50;4.60;;;3.80;;
974;SDS011;6115;49.296;10.602;2022-11-15T10:25:57;3.97;;;3.57;;
974;SDS011;6115;49.296;10.602;2022-11-15T10:30:59;4.00;;;3.70;;
974;SDS011;6115;49.296;10.602;2022-11-15T10:41:13;4.70;;;4.27;;
974;SDS011;6115;49.296;10.602;2022-11-15T10:46:22;3.63;;;3.27;;
974;SDS011;6115;49.296;10.602;2022-11-15T10:51:27;3.63;;;3.33;;
974;SDS011;6115;49.296;10.602;2022-11-15T10:56:29;2.97;;;2.70;;
974;SDS011;6115;49.296;10.602;2022-11-15T11:01:32;5.13;;;4.63;;
974;SDS011;6115;49.296;10.602;2022-11-15T11:06:53;3.00;;;2.53;;
974;SDS011;6115;49.296;10.602;2022-11-15T11:11:58;3.17;;;2.90;;
974;SDS011;6115;49.296;10.602;2022-11-15T11:17:12;3.10;;;2.40;;
974;SDS011;6115;49.296;10.602;2022-11-15T11:39:18;3.27;;;2.43;;
974;SDS011;6115;49.296;10.602;2022-11-15T11:44:53;2.40;;;1.83;;
974;SDS011;6115;49.296;10.602;2022-11-15T11:50:14;2.93;;;1.70;;
974;SDS011;6115;49.296;10.602;2022-11-15T11:55:22;2.93;;;1.60;;
974;SDS011;6115;49.296;10.602;2022-11-15T12:00:26;1.80;;;1.70;;
974;SDS011;6115;49.296;10.602;2022-11-15T12:10:37;1.43;;;1.33;;
974;SDS011;6115;49.296;10.602;2022-11-15T12:15:45;3.80;;;1.63;;
974;SDS011;6115;49.296;10.602;2022-11-15T12:21:07;2.20;;;1.77;;
974;SDS011;6115;49.296;10.602;2022-11-15T12:26:23;2.10;;;1.80;;
974;SDS011;6115;49.296;10.602;2022-11-15T12:36:38;2.37;;;1.70;;
974;SDS011;6115;49.296;10.602;2022-11-15T12:42:34;2.53;;;1.60;;
974;SDS011;6115;49.296;10.602;2022-11-15T12:52:09;2.07;;;1.80;;
974;SDS011;6115;49.296;10.602;2022-11-15T13:02:25;2.03;;;1.90;;
974;SDS011;6115;49.296;10.602;2022-11-15T13:17:49;2.40;;;2.00;;
974;SDS011;6115;49.296;10.602;2022-11-15T13:33:20;1.97;;;1.70;;
974;SDS011;6115;49.296;10.602;2022-11-15T13:38:32;2.63;;;1.50;;
974;SDS011;6115;49.296;10.602;2022-11-15T13:43:35;2.67;;;1.90;;
974;SDS011;6115;49.296;10.602;2022-11-15T13:48:36;2.00;;;1.80;;
974;SDS011;6115;49.296;10.602;2022-11-15T13:53:38;2.27;;;1.70;;
974;SDS011;6115;49.296;10.602;2022-11-15T13:58:43;5.13;;;2.50;;
974;SDS011;6115;49.296;10.602;2022-11-15T14:03:54;2.50;;;2.10;;
974;SDS011;6115;49.296;10.602;2022-11-15T14:24:20;3.50;;;2.60;;
974;SDS011;6115;49.296;10.602;2022-11-15T14:29:28;7.43;;;2.60;;
974;SDS011;6115;49.296;10.602;2022-11-15T14:34:31;3.70;;;2.83;;
974;SDS011;6115;49.296;10.602;2022-11-15T14:39:32;5.50;;;4.40;;
974;SDS011;6115;49.296;10.602;2022-11-15T14:44:32;6.23;;;5.50;;
974;SDS011;6115;49.296;10.602;2022-11-15T14:49:33;5.73;;;3.87;;
974;SDS011;6115;49.296;10.602;2022-11-15T14:54:33;3.73;;;3.43;;
974;SDS011;6115;49.296;10.602;2022-11-15T14:59:34;4.37;;;3.40;;
974;SDS011;6115;49.296;10.602;2022-11-15T15:04:35;3.17;;;2.90;;
974;SDS011;6115;49.296;10.602;2022-11-15T15:09:40;3.83;;;3.43;;
974;SDS011;6115;49.296;10.602;2022-11-15T15:14:41;5.87;;;3.70;;
974;SDS011;6115;49.296;10.602;2022-11-15T15:19:42;7.30;;;4.17;;
974;SDS011;6115;49.296;10.602;2022-11-15T15:24:43;5.73;;;5.10;;
974;SDS011;6115;49.296;10.602;2022-11-15T15:29:45;3.90;;;3.50;;
974;SDS011;6115;49.296;10.602;2022-11-15T15:34:45;9.03;;;4.37;;
974;SDS011;6115;49.296;10.602;2022-11-15T15:39:46;5.33;;;4.20;;
974;SDS011;6115;49.296;10.602;2022-11-15T15:44:46;5.73;;;4.13;;
974;SDS011;6115;49.296;10.602;2022-11-15T15:49:48;5.37;;;4.00;;
974;SDS011;6115;49.296;10.602;2022-11-15T15:54:49;5.80;;;4.70;;
974;SDS011;6115;49.296;10.602;2022-11-15T15:59:50;11.47;;;7.50;;
974;SDS011;6115;49.296;10.602;2022-11-15T16:04:50;8.93;;;4.77;;
974;SDS011;6115;49.296;10.602;2022-11-15T16:09:51;5.93;;;5.00;;
974;SDS011;6115;49.296;10.602;2022-11-15T16:15:00;7.07;;;5.20;;
974;SDS011;6115;49.296;10.602;2022-11-15T16:20:02;7.90;;;6.13;;
974;SDS011;6115;49.296;10.602;2022-11-15T16:25:03;12.70;;;6.60;;
974;SDS011;6115;49.296;10.602;2022-11-15T16:30:04;8.83;;;5.87;;
974;SDS011;6115;49.296;10.602;2022-11-15T16:35:12;7.57;;;6.70;;
974;SDS011;6115;49.296;10.602;2022-11-15T16:40:17;18.47;;;11.00;;
974;SDS011;6115;49.296;10.602;2022-11-15T16:45:24;16.37;;;12.20;;
974;SDS011;6115;49.296;10.602;2022-11-15T16:50:26;9.60;;;8.13;;
974;SDS011;6115;49.296;10.602;2022-11-15T16:55:34;16.43;;;9.07;;
974;SDS011;6115;49.296;10.602;2022-11-15T17:00:34;12.00;;;10.80;;
974;SDS011;6115;49.296;10.602;2022-11-15T17:05:35;11.60;;;9.30;;
974;SDS011;6115;49.296;10.602;2022-11-15T17:10:37;8.67;;;7.77;;
974;SDS011;6115;49.296;10.602;2022-11-15T17:15:42;10.03;;;8.93;;
974;SDS011;6115;49.296;10.602;2022-11-15T17:20:42;10.50;;;9.40;;
974;SDS011;6115;49.296;10.602;2022-11-15T17:25:43;23.40;;;15.10;;
974;SDS011;6115;49.296;10.602;2022-11-15T17:30:43;22.63;;;15.20;;
974;SDS011;6115;49.296;10.602;2022-11-15T17:35:44;8.03;;;5.30;;
974;SDS011;6115;49.296;10.602;2022-11-15T17:40:44;7.67;;;6.60;;
974;SDS011;6115;49.296;10.602;2022-11-15T17:45:45;12.10;;;10.10;;
974;SDS011;6115;49.296;10.602;2022-11-15T17:50:53;12.00;;;10.20;;
974;SDS011;6115;49.296;10.602;2022-11-15T17:56:05;15.83;;;9.00;;
974;SDS011;6115;49.296;10.602;2022-11-15T18:06:22;9.20;;;8.30;;
974;SDS011;6115;49.296;10.602;2022-11-15T18:11:27;8.17;;;7.30;;
974;SDS011;6115;49.296;10.602;2022-11-15T18:16:31;8.63;;;7.67;;
974;SDS011;6115;49.296;10.602;2022-11-15T18:21:33;9.40;;;8.43;;
974;SDS011;6115;49.296;10.602;2022-11-15T18:26:36;7.90;;;7.10;;
974;SDS011;6115;49.296;10.602;2022-11-15T18:31:37;7.87;;;7.07;;
974;SDS011;6115;49.296;10.602;2022-11-15T18:36:37;8.60;;;7.57;;
974;SDS011;6115;49.296;10.602;2022-11-15T18:41:39;10.53;;;9.00;;
974;SDS011;6115;49.296;10.602;2022-11-15T18:46:40;12.13;;;10.10;;
974;SDS011;6115;49.296;10.602;2022-11-15T18:51:41;11.30;;;9.97;;
974;SDS011;6115;49.296;10.602;2022-11-15T18:56:42;14.40;;;11.50;;
974;SDS011;6115;49.296;10.602;2022-11-15T19:01:45;13.97;;;10.80;;
974;SDS011;6115;49.296;10.602;2022-11-15T19:06:49;10.50;;;8.70;;
974;SDS011;6115;49.296;10.602;2022-11-15T19:11:51;13.10;;;8.87;;
974;SDS011;6115;49.296;10.602;2022-11-15T19:16:55;10.80;;;8.80;;
974;SDS011;6115;49.296;10.602;2022-11-15T19:21:56;10.67;;;9.10;;
974;SDS011;6115;49.296;10.602;2022-11-15T19:26:56;10.13;;;8.90;;
974;SDS011;6115;49.296;10.602;2022-11-15T19:31:57;12.53;;;9.20;;
974;SDS011;6115;49.296;10.602;2022-11-15T19:36:58;10.43;;;9.23;;
974;SDS011;6115;49.296;10.602;2022-11-15T19:41:58;11.57;;;9.57;;
974;SDS011;6115;49.296;10.602;2022-11-15T19:46:59;10.60;;;9.50;;
974;SDS011;6115;49.296;10.602;2022-11-15T19:51:59;10.23;;;8.70;;
974;SDS011;6115;49.296;10.602;2022-11-15T19:57:00;10.77;;;9.13;;
974;SDS011;6115;49.296;10.602;2022-11-15T20:02:00;11.87;;;9.73;;
974;SDS011;6115;49.296;10.602;2022-11-15T20:07:01;15.80;;;9.90;;
974;SDS011;6115;49.296;10.602;2022-11-15T20:12:02;10.73;;;9.00;;
974;SDS011;6115;49.296;10.602;2022-11-15T20:17:02;10.00;;;8.40;;
974;SDS011;6115;49.296;10.602;2022-11-15T20:22:03;9.83;;;8.60;;
974;SDS011;6115;49.296;10.602;2022-11-15T20:27:04;12.17;;;10.40;;
974;SDS011;6115;49.296;10.602;2022-11-15T20:32:05;13.37;;;10.77;;
974;SDS011;6115;49.296;10.602;2022-11-15T20:37:06;13.17;;;11.50;;
974;SDS011;6115;49.296;10.602;2022-11-15T20:42:06;16.80;;;11.63;;
974;SDS011;6115;49.296;10.602;2022-11-15T20:47:07;14.43;;;10.87;;
974;SDS011;6115;49.296;10.602;2022-11-15T20:52:08;16.17;;;12.70;;
974;SDS011;6115;49.296;10.602;2022-11-15T20:57:09;11.97;;;10.63;;
974;SDS011;6115;49.296;10.602;2022-11-15T21:02:11;13.57;;;11.17;;
974;SDS011;6115;49.296;10.602;2022-11-15T21:07:12;12.17;;;10.40;;
974;SDS011;6115;49.296;10.602;2022-11-15T21:12:13;10.80;;;9.17;;
974;SDS011;6115;49.296;10.602;2022-11-15T21:17:18;10.57;;;9.33;;
974;SDS011;6115;49.296;10.602;2022-11-15T21:22:18;10.90;;;9.37;;
974;SDS011;6115;49.296;10.602;2022-11-15T21:27:19;10.83;;;9.30;;
974;SDS011;6115;49.296;10.602;2022-11-15T21:32:20;10.83;;;9.03;;
974;SDS011;6115;49.296;10.602;2022-11-15T21:37:21;12.00;;;10.03;;
974;SDS011;6115;49.296;10.602;2022-11-15T21:42:21;11.77;;;10.30;;
974;SDS011;6115;49.296;10.602;2022-11-15T21:47:22;13.53;;;11.20;;
974;SDS011;6115;49.296;10.602;2022-11-15T21:52:22;12.17;;;9.70;;
974;SDS011;6115;49.296;10.602;2022-11-15T21:57:23;10.87;;;9.50;;
974;SDS011;6115;49.296;10.602;2022-11-15T22:02:23;10.70;;;9.60;;
974;SDS011;6115;49.296;10.602;2022-11-15T22:07:24;11.17;;;9.77;;
974;SDS011;6115;49.296;10.602;2022-11-15T22:12:24;13.07;;;11.07;;
974;SDS011;6115;49.296;10.602;2022-11-15T22:17:25;10.90;;;9.57;;
974;SDS011;6115;49.296;10.602;2022-11-15T22:22:45;13.27;;;11.43;;
974;SDS011;6115;49.296;10.602;2022-11-15T22:27:46;13.40;;;10.30;;
974;SDS011;6115;49.296;10.602;2022-11-15T22:32:47;13.37;;;9.87;;
974;SDS011;6115;49.296;10.602;2022-11-15T22:37:47;16.87;;;10.57;;
974;SDS011;6115;49.296;10.602;2022-11-15T22:42:48;13.90;;;11.07;;
974;SDS011;6115;49.296;10.602;2022-11-15T22:47:48;19.37;;;12.77;;
974;SDS011;6115;49.296;10.602;2022-11-15T22:52:49;14.20;;;12.40;;
974;SDS011;6115;49.296;10.602;2022-11-15T22:57:50;14.33;;;11.50;;
974;SDS011;6115;49.296;10.602;2022-11-15T23:02:50;13.40;;;11.03;;
974;SDS011;6115;49.296;10.602;2022-11-15T23:07:51;12.93;;;11.30;;
974;SDS011;6115;49.296;10.602;2022-11-15T23:12:52;14.90;;;11.87;;
974;SDS011;6115;49.296;10.602;2022-11-15T23:18:11;17.10;;;12.30;;
974;SDS011;6115;49.296;10.602;2022-11-15T23:23:12;14.67;;;11.90;;
974;SDS011;6115;49.296;10.602;2022-11-15T23:28:12;17.20;;;13.50;;
974;SDS011;6115;49.296;10.602;2022-11-15T23:33:13;13.20;;;11.80;;
974;SDS011;6115;49.296;10.602;2022-11-15T23:38:33;18.07;;;13.13;;
974;SDS011;6115;49.296;10.602;2022-11-15T23:43:38;15.20;;;12.27;;
974;SDS011;6115;49.296;10.602;2022-11-15T23:48:38;16.43;;;14.27;;
974;SDS011;6115;49.296;10.602;2022-11-15T23:53:39;15.47;;;13.20;;
974;SDS011;6115;49.296;10.602;2022-11-15T23:58:40;14.83;;;12.93;;
